Time;durP1;ratioP1;P1;durP2;ratioP2;P2;SDS_P1;SDS_P2;PMS_P1;PMS_P2;Temp;Humidity;BMP_temperature;BMP_pressure;BME280_temperature;BME280_humidity;BME280_pressure;Samples;Min_cycle;Max_cycle;Signal;HPM_P1;HPM_P2
2022/07/02 00:00:44;;;;;;;7.10;4.18;;;12.40;99.90;;;;;;5012962;28;20065;-85
2022/07/02 00:03:12;;;;;;;8.93;4.20;;;12.30;99.90;;;;;;5020851;28;20056;-85
2022/07/02 00:05:54;;;;;;;10.27;4.50;;;12.30;99.90;;;;;;5017521;28;20068;-85
2022/07/02 00:08:24;;;;;;;6.18;4.53;;;12.30;99.90;;;;;;5034104;28;20077;-85
2022/07/02 00:10:51;;;;;;;5.80;4.07;;;12.30;99.90;;;;;;5001204;28;20180;-86
2022/07/02 00:13:17;;;;;;;6.75;4.82;;;12.20;99.90;;;;;;5031977;28;20635;-85
2022/07/02 00:15:44;;;;;;;5.50;4.30;;;12.20;99.90;;;;;;5000193;28;20047;-86
2022/07/02 00:18:11;;;;;;;6.72;4.00;;;12.20;99.90;;;;;;5001266;28;20068;-85
2022/07/02 00:20:38;;;;;;;7.53;4.45;;;12.10;99.90;;;;;;5025113;28;20118;-86
2022/07/02 00:23:03;;;;;;;7.70;4.75;;;12.10;99.90;;;;;;5032768;28;20466;-85
2022/07/02 00:25:38;;;;;;;6.95;4.60;;;12.10;99.90;;;;;;5016330;28;20041;-87
2022/07/02 00:28:11;;;;;;;4.88;4.05;;;12.10;99.90;;;;;;5021787;28;20134;-85
2022/07/02 00:30:38;;;;;;;6.65;4.47;;;12.00;99.90;;;;;;5010388;28;20095;-85
2022/07/02 00:33:04;;;;;;;7.10;4.70;;;12.00;99.90;;;;;;5025875;28;20067;-85
2022/07/02 00:35:30;;;;;;;5.95;4.18;;;12.00;99.90;;;;;;5001113;28;20474;-86
2022/07/02 00:37:57;;;;;;;7.30;4.85;;;12.00;99.90;;;;;;5029950;28;20525;-85
2022/07/02 00:40:24;;;;;;;5.95;5.10;;;11.90;99.90;;;;;;5001616;28;20041;-84
2022/07/02 00:42:50;;;;;;;6.75;4.68;;;11.90;99.90;;;;;;5011876;28;20526;-85
2022/07/02 00:45:18;;;;;;;8.00;4.78;;;11.90;99.90;;;;;;5027772;28;20124;-86
2022/07/02 00:47:43;;;;;;;7.53;4.60;;;11.90;99.90;;;;;;5018632;28;20426;-86
2022/07/02 00:50:09;;;;;;;11.55;4.60;;;11.80;99.90;;;;;;5032252;28;20120;-86
2022/07/02 00:52:35;;;;;;;5.63;4.68;;;11.80;99.90;;;;;;5021853;28;20379;-88
2022/07/02 00:55:01;;;;;;;10.45;5.13;;;11.80;99.90;;;;;;5034283;28;20099;-86
2022/07/02 00:57:27;;;;;;;7.35;4.30;;;11.80;99.90;;;;;;5022366;28;20045;-85
2022/07/02 00:59:53;;;;;;;7.13;4.80;;;11.70;99.90;;;;;;5031685;28;20095;-84
2022/07/02 01:02:22;;;;;;;5.72;4.80;;;11.70;99.90;;;;;;5025669;28;20037;-86
2022/07/02 01:04:49;;;;;;;6.70;4.75;;;11.70;99.90;;;;;;5028979;28;20547;-86
2022/07/02 01:07:16;;;;;;;7.53;4.75;;;11.60;99.90;;;;;;5005837;28;20037;-85
2022/07/02 01:12:30;;;;;;;7.45;4.72;;;11.60;99.90;;;;;;5033298;28;20076;-87
2022/07/02 01:14:57;;;;;;;8.35;5.05;;;11.50;99.90;;;;;;5019624;28;20072;-85
2022/07/02 01:17:23;;;;;;;6.63;4.75;;;11.60;99.90;;;;;;5017611;28;20053;-85
2022/07/02 01:19:49;;;;;;;9.65;4.95;;;11.50;99.90;;;;;;4998631;28;20124;-85
2022/07/02 01:22:31;;;;;;;9.57;5.05;;;11.50;99.90;;;;;;5030048;28;20104;-86
2022/07/02 01:24:57;;;;;;;10.48;5.70;;;11.50;99.90;;;;;;5057178;28;20037;-86
2022/07/02 01:27:23;;;;;;;8.80;5.25;;;11.50;99.90;;;;;;5045940;28;20041;-87
2022/07/02 01:29:49;;;;;;;11.27;5.90;;;11.30;99.90;;;;;;5020768;28;20044;-86
2022/07/02 01:32:15;;;;;;;9.32;5.47;;;11.40;99.90;;;;;;5034407;28;20046;-86
2022/07/02 01:34:43;;;;;;;8.75;6.00;;;11.40;99.90;;;;;;5021349;28;20447;-88
2022/07/02 01:37:14;;;;;;;9.30;5.68;;;11.40;99.90;;;;;;5022272;28;20528;-87
2022/07/02 01:39:41;;;;;;;10.90;5.88;;;11.40;99.90;;;;;;5009118;28;20457;-86
2022/07/02 01:42:08;;;;;;;8.70;5.47;;;11.30;99.90;;;;;;5023892;28;20043;-86
2022/07/02 01:44:35;;;;;;;9.30;6.28;;;11.30;99.90;;;;;;5020024;28;20577;-86
2022/07/02 01:47:02;;;;;;;9.48;5.88;;;11.30;99.90;;;;;;5034766;28;20371;-85
2022/07/02 01:49:28;;;;;;;8.50;6.25;;;11.30;99.90;;;;;;5013004;28;20094;-86
2022/07/02 01:51:54;;;;;;;8.82;5.55;;;11.30;99.90;;;;;;5004019;28;20060;-86
2022/07/02 01:54:20;;;;;;;7.90;5.75;;;11.30;99.90;;;;;;5038098;28;20132;-86
2022/07/02 01:56:45;;;;;;;9.70;5.15;;;11.30;99.90;;;;;;5023386;28;20045;-89
2022/07/02 01:59:13;;;;;;;11.32;6.03;;;11.30;99.90;;;;;;5055448;28;20043;-86
2022/07/02 02:01:40;;;;;;;8.45;5.82;;;11.30;99.90;;;;;;5004246;28;20033;-86
2022/07/02 02:04:05;;;;;;;7.57;6.07;;;11.30;99.90;;;;;;5031885;28;20106;-87
2022/07/02 02:06:31;;;;;;;9.25;6.20;;;11.20;99.90;;;;;;5052306;28;20036;-86
2022/07/02 02:08:57;;;;;;;14.38;6.63;;;11.20;99.90;;;;;;5005031;28;20078;-86
2022/07/02 02:11:23;;;;;;;9.05;6.38;;;11.20;99.90;;;;;;5041831;28;20070;-86
2022/07/02 02:13:49;;;;;;;8.95;5.57;;;11.20;99.90;;;;;;5026708;28;20036;-91
2022/07/02 02:16:15;;;;;;;10.82;6.15;;;11.20;99.90;;;;;;5040915;28;20044;-85
2022/07/02 02:18:40;;;;;;;7.57;6.50;;;11.20;99.90;;;;;;5007692;28;20052;-85
2022/07/02 02:21:06;;;;;;;9.82;6.80;;;11.20;99.90;;;;;;5018552;28;20098;-85
2022/07/02 02:23:32;;;;;;;11.93;7.20;;;11.20;99.90;;;;;;5035433;28;20040;-85
2022/07/02 02:25:57;;;;;;;8.45;6.80;;;11.20;99.90;;;;;;5038116;28;20166;-86
2022/07/02 02:28:23;;;;;;;10.68;7.28;;;11.20;99.90;;;;;;5028814;28;20044;-86
2022/07/02 02:30:49;;;;;;;11.73;6.95;;;11.10;99.90;;;;;;5036158;28;20072;-88
2022/07/02 02:33:15;;;;;;;9.50;7.13;;;11.10;99.90;;;;;;5023881;28;20041;-87
2022/07/02 02:35:40;;;;;;;11.80;7.22;;;11.10;99.90;;;;;;5032577;28;20157;-86
2022/07/02 02:38:06;;;;;;;10.35;6.68;;;11.10;99.90;;;;;;5036321;28;20033;-89
2022/07/02 02:40:32;;;;;;;12.00;7.28;;;11.10;99.90;;;;;;5018501;28;20044;-86
2022/07/02 02:42:57;;;;;;;10.77;7.07;;;11.10;99.90;;;;;;5034928;28;20050;-85
2022/07/02 02:45:23;;;;;;;11.15;7.00;;;11.10;99.90;;;;;;5022882;28;20379;-87
2022/07/02 02:47:48;;;;;;;11.55;7.43;;;11.10;99.90;;;;;;5015076;28;20041;-85
2022/07/02 02:50:14;;;;;;;9.48;7.07;;;11.10;99.90;;;;;;5022381;28;20048;-86
2022/07/02 02:52:40;;;;;;;10.98;7.85;;;11.10;99.90;;;;;;5014870;28;20349;-86
2022/07/02 02:55:06;;;;;;;11.45;7.22;;;11.00;99.90;;;;;;5032672;28;20041;-86
2022/07/02 02:57:32;;;;;;;11.63;7.55;;;11.00;99.90;;;;;;5024734;28;20065;-86
2022/07/02 02:59:58;;;;;;;13.32;7.95;;;11.10;99.90;;;;;;5001180;28;20091;-86
2022/07/02 03:02:24;;;;;;;14.75;7.57;;;11.10;99.90;;;;;;5009636;28;20041;-85
2022/07/02 03:04:49;;;;;;;13.30;7.88;;;11.10;99.90;;;;;;5019571;28;20053;-85
2022/07/02 03:07:15;;;;;;;13.77;7.20;;;11.10;99.90;;;;;;5029898;28;20042;-85
2022/07/02 03:09:41;;;;;;;11.82;7.70;;;11.10;99.90;;;;;;5014450;28;20049;-85
2022/07/02 03:12:07;;;;;;;12.52;8.52;;;11.10;99.90;;;;;;5050924;28;20052;-85
2022/07/02 03:14:33;;;;;;;11.68;7.40;;;11.10;99.90;;;;;;5044520;28;20121;-86
2022/07/02 03:16:59;;;;;;;9.73;7.47;;;11.10;99.90;;;;;;5003758;28;20128;-86
2022/07/02 03:19:24;;;;;;;11.75;8.05;;;11.10;99.90;;;;;;5060819;28;20471;-87
2022/07/02 03:21:50;;;;;;;12.00;7.70;;;11.10;99.90;;;;;;5032138;28;20272;-85
2022/07/02 03:24:16;;;;;;;13.30;8.60;;;11.00;99.90;;;;;;5012222;28;20053;-85
2022/07/02 03:26:41;;;;;;;10.32;7.18;;;11.10;99.90;;;;;;5003096;28;20463;-85
2022/07/02 03:29:07;;;;;;;16.13;8.23;;;11.00;99.90;;;;;;5012153;28;20504;-86
2022/07/02 03:31:33;;;;;;;11.48;8.13;;;11.00;99.90;;;;;;5021864;28;20052;-85
2022/07/02 03:33:58;;;;;;;13.57;8.27;;;11.10;99.90;;;;;;5044826;28;20077;-89
2022/07/02 03:36:24;;;;;;;14.07;8.85;;;11.00;99.90;;;;;;5024834;28;20051;-85
2022/07/02 03:38:50;;;;;;;11.68;8.05;;;11.10;99.90;;;;;;5049875;28;20079;-86
2022/07/02 03:41:16;;;;;;;14.52;7.70;;;11.00;99.90;;;;;;5034587;28;20041;-86
2022/07/02 03:43:42;;;;;;;11.45;8.02;;;11.10;99.90;;;;;;5031794;28;20116;-86
2022/07/02 03:46:07;;;;;;;12.65;7.80;;;11.10;99.90;;;;;;4992126;28;20180;-85
2022/07/02 03:48:33;;;;;;;10.13;7.63;;;11.10;99.90;;;;;;5024477;28;20037;-85
2022/07/02 03:50:59;;;;;;;11.27;7.47;;;11.10;99.90;;;;;;5026162;28;20681;-85
2022/07/02 03:53:25;;;;;;;11.48;7.88;;;11.10;99.90;;;;;;5038234;28;20052;-85
2022/07/02 03:55:50;;;;;;;10.82;7.70;;;11.10;99.90;;;;;;5011049;28;20045;-85
2022/07/02 03:58:16;;;;;;;10.27;7.90;;;11.10;99.90;;;;;;5046960;28;20037;-86
2022/07/02 04:00:42;;;;;;;11.85;7.57;;;11.10;99.90;;;;;;5042286;28;20053;-85
2022/07/02 04:03:08;;;;;;;12.70;8.27;;;11.10;99.90;;;;;;5017863;28;20041;-85
2022/07/02 04:05:33;;;;;;;10.48;8.13;;;11.10;99.90;;;;;;5035210;28;20045;-83
2022/07/02 04:07:59;;;;;;;12.82;8.23;;;11.10;99.90;;;;;;5034067;28;20048;-83
2022/07/02 04:10:25;;;;;;;13.60;7.88;;;11.20;99.90;;;;;;5035190;28;20052;-84
2022/07/02 04:12:50;;;;;;;14.30;9.00;;;11.20;99.90;;;;;;5025564;28;20165;-83
2022/07/02 04:15:16;;;;;;;8.80;7.80;;;11.20;99.90;;;;;;5041904;28;20097;-84
2022/07/02 04:17:42;;;;;;;11.35;7.40;;;11.30;99.90;;;;;;5025072;28;20124;-85
2022/07/02 04:20:08;;;;;;;12.32;8.95;;;11.30;99.90;;;;;;5039673;28;20045;-85
2022/07/02 04:22:34;;;;;;;12.18;8.90;;;11.30;99.90;;;;;;5034365;28;20565;-84
2022/07/02 04:25:02;;;;;;;11.20;8.90;;;11.40;99.90;;;;;;5011420;28;20120;-84
2022/07/02 04:27:28;;;;;;;12.70;10.18;;;11.50;99.90;;;;;;5038270;28;20045;-84
2022/07/02 04:29:53;;;;;;;11.30;9.43;;;11.40;99.90;;;;;;5007143;28;20474;-86
2022/07/02 04:32:19;;;;;;;13.77;9.68;;;11.50;99.90;;;;;;5033657;28;20071;-89
2022/07/02 04:34:45;;;;;;;18.30;10.00;;;11.50;99.90;;;;;;5055405;28;20485;-85
2022/07/02 04:37:10;;;;;;;13.05;9.55;;;11.50;99.90;;;;;;5033129;28;20049;-88
2022/07/02 04:39:36;;;;;;;14.20;10.50;;;11.60;99.90;;;;;;5044754;28;20124;-86
2022/07/02 04:42:02;;;;;;;13.80;10.07;;;11.60;99.90;;;;;;5040010;28;20076;-85
2022/07/02 04:44:27;;;;;;;15.35;10.57;;;11.70;99.90;;;;;;5054801;28;20183;-85
2022/07/02 04:46:55;;;;;;;15.32;10.25;;;11.70;99.90;;;;;;5026339;28;20041;-85
2022/07/02 04:49:20;;;;;;;13.30;10.85;;;11.80;99.90;;;;;;5008398;28;20045;-86
2022/07/02 04:51:46;;;;;;;14.68;11.10;;;11.80;99.90;;;;;;5023532;28;20063;-86
2022/07/02 04:54:12;;;;;;;17.73;11.55;;;12.00;99.90;;;;;;5041192;28;20036;-85
2022/07/02 04:56:38;;;;;;;16.95;10.75;;;11.90;99.90;;;;;;5039900;28;20403;-86
2022/07/02 04:59:03;;;;;;;12.30;10.18;;;11.90;99.90;;;;;;5019375;28;20138;-84
2022/07/02 05:01:29;;;;;;;15.50;10.13;;;12.00;99.90;;;;;;5030488;28;20117;-84
2022/07/02 05:03:55;;;;;;;13.05;9.68;;;12.00;99.90;;;;;;5038520;28;20041;-85
2022/07/02 05:06:22;;;;;;;13.68;9.73;;;12.10;99.90;;;;;;5040725;28;20060;-85
2022/07/02 05:08:51;;;;;;;11.23;9.60;;;12.20;99.90;;;;;;5046932;28;20369;-85
2022/07/02 05:11:19;;;;;;;15.02;9.65;;;12.20;99.90;;;;;;5052042;28;20036;-85
2022/07/02 05:13:48;;;;;;;13.80;9.88;;;12.30;99.90;;;;;;5058127;28;20424;-86
2022/07/02 05:16:15;;;;;;;12.40;8.98;;;12.30;99.90;;;;;;5025139;28;20051;-89
2022/07/02 05:18:41;;;;;;;11.73;9.20;;;12.30;99.90;;;;;;5038077;28;20044;-85
2022/07/02 05:21:07;;;;;;;15.80;9.75;;;12.40;99.90;;;;;;5040818;28;20083;-86
2022/07/02 05:23:33;;;;;;;11.18;8.63;;;12.40;99.90;;;;;;5044567;28;20090;-86
2022/07/02 05:25:59;;;;;;;11.63;8.68;;;12.50;99.90;;;;;;5053269;28;20040;-87
2022/07/02 05:28:25;;;;;;;9.60;8.07;;;12.60;99.90;;;;;;5051939;28;20072;-85
2022/07/02 05:30:51;;;;;;;11.07;7.93;;;12.70;99.90;;;;;;5027571;28;20501;-85
2022/07/02 05:33:17;;;;;;;9.85;7.57;;;12.70;99.90;;;;;;5052415;28;20040;-86
2022/07/02 05:35:43;;;;;;;13.30;8.40;;;12.90;99.90;;;;;;5022632;28;20102;-85
2022/07/02 05:38:09;;;;;;;12.70;7.25;;;13.00;99.90;;;;;;5033420;28;20045;-87
2022/07/02 05:40:35;;;;;;;9.02;6.80;;;13.00;99.90;;;;;;5029624;28;20052;-86
2022/07/02 05:43:01;;;;;;;12.73;6.90;;;13.20;99.90;;;;;;5039344;28;20040;-85
2022/07/02 05:45:26;;;;;;;8.18;6.20;;;13.30;99.90;;;;;;5041629;28;20047;-84
2022/07/02 05:47:52;;;;;;;10.05;6.18;;;13.40;99.90;;;;;;5028316;28;20131;-85
2022/07/02 05:50:18;;;;;;;9.27;6.20;;;13.40;99.90;;;;;;5042830;28;20040;-89
2022/07/02 05:52:44;;;;;;;7.78;5.57;;;13.60;99.90;;;;;;5056936;28;20082;-86
2022/07/02 05:55:11;;;;;;;8.05;5.68;;;13.70;99.90;;;;;;5048395;28;20044;-85
2022/07/02 05:57:37;;;;;;;10.07;4.90;;;13.80;99.90;;;;;;5049350;28;20129;-86
2022/07/02 06:00:05;;;;;;;9.25;5.05;;;13.90;99.90;;;;;;5048749;28;20044;-85
2022/07/02 06:02:31;;;;;;;8.02;5.30;;;14.00;99.90;;;;;;5045673;28;20102;-87
2022/07/02 06:04:56;;;;;;;8.55;5.13;;;14.00;99.90;;;;;;5045616;28;20040;-85
2022/07/02 06:07:40;;;;;;;9.95;5.70;;;14.10;99.90;;;;;;5050079;28;20144;-86
2022/07/02 06:10:07;;;;;;;7.95;5.53;;;14.20;99.90;;;;;;5046899;28;20041;-85
2022/07/02 06:12:33;;;;;;;10.93;5.40;;;14.30;99.90;;;;;;5018072;28;20047;-85
2022/07/02 06:14:59;;;;;;;6.35;4.40;;;14.40;99.90;;;;;;5028905;28;20064;-83
2022/07/02 06:17:24;;;;;;;6.13;4.43;;;14.50;99.90;;;;;;5032932;28;20143;-86
2022/07/02 06:19:51;;;;;;;10.05;4.68;;;14.70;99.90;;;;;;5045948;28;20049;-88
2022/07/02 06:22:17;;;;;;;10.07;3.95;;;14.80;99.90;;;;;;5042882;28;20079;-87
2022/07/02 06:24:42;;;;;;;8.07;3.80;;;15.00;99.90;;;;;;5057374;28;20186;-86
2022/07/02 06:27:08;;;;;;;6.80;3.30;;;15.20;99.90;;;;;;5009638;28;20033;-86
2022/07/02 06:29:34;;;;;;;6.35;3.35;;;15.40;99.90;;;;;;5035498;28;20162;-85
2022/07/02 06:31:59;;;;;;;5.70;2.97;;;15.70;99.90;;;;;;5035996;28;20113;-87
2022/07/02 06:34:25;;;;;;;4.57;2.90;;;16.00;99.90;;;;;;5020510;28;20048;-86
2022/07/02 06:36:51;;;;;;;6.03;3.30;;;16.20;99.90;;;;;;5033057;28;20138;-85
2022/07/02 06:39:17;;;;;;;6.63;2.53;;;16.50;99.90;;;;;;5022412;28;20044;-85
2022/07/02 06:44:27;;;;;;;4.28;2.15;;;16.90;16.60;;;;;;5038492;28;20477;-87
2022/07/02 06:46:52;;;;;;;3.38;1.63;;;17.20;1.00;;;;;;5040654;28;20040;-83
2022/07/02 06:49:18;;;;;;;4.82;1.63;;;17.30;1.00;;;;;;5023690;28;20068;-84
2022/07/02 06:51:44;;;;;;;3.17;1.60;;;17.60;1.00;;;;;;5053923;28;20056;-84
2022/07/02 06:54:10;;;;;;;2.53;1.40;;;17.80;1.00;;;;;;5029402;28;20048;-85
2022/07/02 06:56:36;;;;;;;3.72;1.55;;;18.00;1.00;;;;;;5038098;28;20070;-89
2022/07/02 06:59:05;;;;;;;3.53;1.58;;;18.20;1.00;;;;;;5039110;28;20040;-84
2022/07/02 07:01:32;;;;;;;3.05;1.48;;;18.40;1.00;;;;;;5039422;28;20040;-85
2022/07/02 07:03:57;;;;;;;2.85;1.65;;;18.60;99.90;;;;;;5053540;28;20037;-84
2022/07/02 07:06:25;;;;;;;2.33;1.30;;;18.70;99.90;;;;;;5026117;28;20047;-84
2022/07/02 07:08:53;;;;;;;2.85;1.23;;;19.00;99.90;;;;;;5040117;28;20166;-84
2022/07/02 07:11:22;;;;;;;2.53;1.20;;;19.20;99.90;;;;;;5056473;28;20045;-84
2022/07/02 07:13:49;;;;;;;3.47;1.20;;;19.30;99.90;;;;;;5048017;28;20704;-84
2022/07/02 07:16:15;;;;;;;3.80;1.98;;;19.50;92.60;;;;;;5048920;28;20048;-84
2022/07/02 07:18:44;;;;;;;4.00;1.27;;;19.80;31.00;;;;;;5051830;28;20040;-84
2022/07/02 07:21:10;;;;;;;3.80;1.30;;;19.90;1.00;;;;;;5055903;28;20381;-84
2022/07/02 07:23:35;;;;;;;4.60;1.30;;;20.10;1.00;;;;;;5006518;28;20131;-84
2022/07/02 07:26:01;;;;;;;3.22;1.00;;;20.30;1.00;;;;;;5037098;28;20048;-83
2022/07/02 07:28:27;;;;;;;1.85;1.10;;;20.40;99.90;;;;;;5021314;28;20049;-81
2022/07/02 07:30:53;;;;;;;2.78;0.98;;;20.60;99.90;;;;;;5034123;28;20041;-83
2022/07/02 07:33:19;;;;;;;4.00;1.38;;;20.80;99.90;;;;;;5034371;28;20105;-82
2022/07/02 07:35:45;;;;;;;4.80;1.00;;;21.00;99.90;;;;;;5035619;28;20178;-82
2022/07/02 07:38:11;;;;;;;3.20;1.20;;;21.30;99.90;;;;;;5044998;28;20123;-83
2022/07/02 07:40:37;;;;;;;3.63;1.20;;;21.50;99.90;;;;;;5027762;28;20076;-86
2022/07/02 07:43:03;;;;;;;1.92;0.80;;;21.70;99.90;;;;;;5043600;28;20208;-83
2022/07/02 07:45:29;;;;;;;3.25;0.90;;;21.60;99.90;;;;;;5016815;28;20492;-83
2022/07/02 07:47:55;;;;;;;4.78;1.00;;;21.50;99.90;;;;;;5036720;28;20052;-83
2022/07/02 07:50:21;;;;;;;6.93;1.25;;;21.60;99.90;;;;;;5036384;28;20173;-84
2022/07/02 07:52:47;;;;;;;2.83;1.00;;;21.60;99.90;;;;;;5013352;28;20060;-84
2022/07/02 07:55:13;;;;;;;1.63;0.77;;;21.70;99.90;;;;;;5034976;28;20094;-82
2022/07/02 07:57:39;;;;;;;9.63;1.38;;;22.00;99.90;;;;;;5046954;28;20028;-84
2022/07/02 08:00:05;;;;;;;2.60;0.95;;;22.40;99.90;;;;;;5049088;28;20033;-84
2022/07/02 08:02:31;;;;;;;3.90;0.95;;;22.50;99.90;;;;;;5039907;28;20448;-85
2022/07/02 08:04:57;;;;;;;5.63;1.05;;;22.60;99.90;;;;;;5046393;28;20057;-84
2022/07/02 08:07:23;;;;;;;7.18;1.10;;;22.80;99.90;;;;;;5026030;28;20068;-84
2022/07/02 08:09:56;;;;;;;3.67;0.82;;;22.90;99.90;;;;;;5034439;28;20549;-84
2022/07/02 08:12:21;;;;;;;2.40;0.57;;;23.20;99.90;;;;;;5028282;28;20124;-84
2022/07/02 08:14:47;;;;;;;3.13;0.60;;;23.60;99.90;;;;;;5035058;28;20072;-85
2022/07/02 08:17:14;;;;;;;1.90;0.55;;;23.60;99.90;;;;;;5035525;28;20052;-84
2022/07/02 08:19:39;;;;;;;1.38;0.50;;;23.70;99.90;;;;;;5050880;28;20701;-84
2022/07/02 08:22:05;;;;;;;3.40;0.68;;;23.90;99.90;;;;;;5042575;28;20096;-86
2022/07/02 08:24:31;;;;;;;1.90;0.60;;;23.80;99.90;;;;;;5048429;28;20041;-84
2022/07/02 08:26:56;;;;;;;1.70;0.60;;;23.50;99.90;;;;;;5016499;28;20045;-86
2022/07/02 08:29:22;;;;;;;1.40;0.75;;;23.60;99.90;;;;;;5019921;28;20048;-84
2022/07/02 08:31:47;;;;;;;2.70;1.00;;;23.70;99.90;;;;;;5018911;28;20065;-82
2022/07/02 08:34:13;;;;;;;6.38;2.40;;;23.90;99.90;;;;;;5022532;28;20070;-85
2022/07/02 08:36:39;;;;;;;3.10;1.38;;;23.90;99.90;;;;;;5073294;28;20837;-88
2022/07/02 08:39:05;;;;;;;3.17;0.70;;;24.20;99.90;;;;;;5042641;28;20385;-86
2022/07/02 08:41:31;;;;;;;2.85;0.80;;;24.60;99.90;;;;;;5060148;28;20096;-86
2022/07/02 08:44:00;;;;;;;3.47;2.03;;;25.00;99.90;;;;;;5049433;28;20052;-85
2022/07/02 08:46:26;;;;;;;2.30;0.90;;;24.80;99.90;;;;;;5034491;28;20044;-84
2022/07/02 08:48:53;;;;;;;1.90;0.77;;;25.30;99.90;;;;;;5013889;28;20072;-84
2022/07/02 08:51:22;;;;;;;2.67;0.50;;;25.90;99.90;;;;;;5028175;28;20167;-85
2022/07/02 08:53:49;;;;;;;2.63;0.60;;;26.60;99.90;;;;;;5018755;28;20041;-85
2022/07/02 08:56:15;;;;;;;14.20;1.20;;;26.90;99.90;;;;;;5035601;28;20043;-84
2022/07/02 08:58:41;;;;;;;4.55;0.70;;;26.60;99.90;;;;;;5021079;28;20076;-85
2022/07/02 09:01:08;;;;;;;1.95;0.35;;;26.20;99.90;;;;;;5032168;28;20044;-87
2022/07/02 09:03:35;;;;;;;1.27;0.50;;;26.40;99.90;;;;;;5060632;28;20440;-85
2022/07/02 09:06:04;;;;;;;1.52;0.50;;;26.40;99.90;;;;;;5060855;28;20048;-84
2022/07/02 09:08:31;;;;;;;2.75;0.60;;;26.10;99.90;;;;;;5052799;28;20469;-84
2022/07/02 09:10:58;;;;;;;1.10;0.50;;;25.90;99.90;;;;;;5063020;28;20050;-84
2022/07/02 09:13:25;;;;;;;1.77;0.68;;;26.30;99.90;;;;;;5054510;28;20040;-84
2022/07/02 09:15:52;;;;;;;1.95;0.63;;;26.80;99.90;;;;;;5039072;28;20045;-85
2022/07/02 09:18:18;;;;;;;3.00;0.55;;;27.10;99.90;;;;;;5070869;28;20040;-84
2022/07/02 09:20:44;;;;;;;2.25;0.52;;;27.60;99.90;;;;;;5059208;28;20117;-89
2022/07/02 09:23:20;;;;;;;2.30;0.52;;;27.90;99.90;;;;;;5006117;28;20032;-84
2022/07/02 09:25:48;;;;;;;1.25;0.50;;;28.40;99.90;;;;;;5040588;28;20119;-89
2022/07/02 09:28:15;;;;;;;1.08;0.50;;;28.50;99.90;;;;;;5058580;28;20052;-84
2022/07/02 09:30:42;;;;;;;2.47;0.40;;;28.80;99.90;;;;;;5041816;28;20040;-85
2022/07/02 09:33:28;;;;;;;1.92;0.30;;;28.80;99.90;;;;;;5038622;28;20036;-85
2022/07/02 09:35:54;;;;;;;1.23;0.40;;;28.70;99.90;;;;;;5057111;28;20040;-84
2022/07/02 09:38:20;;;;;;;1.45;0.50;;;28.60;99.90;;;;;;5041830;28;20071;-84
2022/07/02 09:41:01;;;;;;;2.15;0.40;;;28.30;99.90;;;;;;5030295;28;20127;-85
2022/07/02 09:43:27;;;;;;;2.22;0.35;;;28.60;99.90;;;;;;5037544;28;20045;-86
2022/07/02 09:45:55;;;;;;;1.02;0.28;;;29.20;99.90;;;;;;5050002;28;20032;-84
2022/07/02 09:48:20;;;;;;;1.02;0.40;;;29.40;99.90;;;;;;5039453;28;20044;-84
2022/07/02 09:50:46;;;;;;;1.33;0.32;;;29.20;99.90;;;;;;5035294;28;20032;-84
2022/07/02 09:53:12;;;;;;;0.93;0.30;;;29.50;99.90;;;;;;5042303;28;20087;-83
2022/07/02 09:55:38;;;;;;;1.15;0.63;;;29.80;99.90;;;;;;5030716;28;20068;-82
2022/07/02 09:58:05;;;;;;;1.75;0.40;;;29.80;99.90;;;;;;5065798;28;20078;-82
2022/07/02 10:00:34;;;;;;;1.95;0.50;;;29.80;99.90;;;;;;5057483;28;20051;-85
2022/07/02 10:03:01;;;;;;;1.02;0.40;;;29.50;99.90;;;;;;5033377;28;20556;-83
2022/07/02 10:05:33;;;;;;;0.70;0.30;;;29.00;99.90;;;;;;5021823;28;20049;-83
2022/07/02 10:08:01;;;;;;;1.02;0.43;;;27.80;99.90;;;;;;5034327;28;20509;-84
2022/07/02 10:10:38;;;;;;;1.52;0.30;;;26.30;99.90;;;;;;5053004;28;21927;-85
2022/07/02 10:13:05;;;;;;;1.85;0.30;;;25.70;99.90;;;;;;5042899;28;20131;-84
2022/07/02 10:15:33;;;;;;;0.80;0.30;;;25.70;99.90;;;;;;5064393;28;20087;-85
2022/07/02 10:18:03;;;;;;;2.20;0.40;;;26.40;99.90;;;;;;5039712;28;20048;-85
2022/07/02 10:20:33;;;;;;;2.33;0.30;;;26.80;99.90;;;;;;5021875;28;20056;-84
2022/07/02 10:23:04;;;;;;;0.95;0.30;;;27.20;99.90;;;;;;5039380;28;20170;-85
2022/07/02 10:25:31;;;;;;;1.42;0.40;;;26.60;99.90;;;;;;5067512;28;20048;-86
2022/07/02 10:27:57;;;;;;;2.45;0.40;;;26.00;99.90;;;;;;5041956;28;20147;-86
2022/07/02 10:30:29;;;;;;;2.58;0.38;;;25.90;99.90;;;;;;5051594;28;20123;-85
2022/07/02 10:32:54;;;;;;;1.17;0.30;;;26.40;99.90;;;;;;5061824;28;20069;-87
2022/07/02 10:35:23;;;;;;;1.30;0.30;;;26.60;99.90;;;;;;5062091;28;20044;-84
2022/07/02 10:37:56;;;;;;;1.15;0.40;;;26.60;99.90;;;;;;5041325;28;20055;-85
2022/07/02 10:40:22;;;;;;;3.95;0.30;;;27.00;99.90;;;;;;5058021;28;20454;-85
2022/07/02 10:42:49;;;;;;;2.15;0.20;;;27.50;99.90;;;;;;5033120;28;20138;-85
2022/07/02 10:45:17;;;;;;;1.48;0.22;;;26.70;99.90;;;;;;5053902;28;20154;-84
2022/07/02 10:47:58;;;;;;;1.17;0.47;;;26.60;99.90;;;;;;5051775;28;20040;-86
2022/07/02 10:50:35;;;;;;;1.00;0.40;;;27.20;99.90;;;;;;5039722;28;20040;-86
2022/07/02 10:53:14;;;;;;;0.95;0.40;;;27.70;99.90;;;;;;5039850;28;20056;-87
2022/07/02 10:55:42;;;;;;;3.15;0.30;;;28.50;99.90;;;;;;5045485;28;20362;-86
2022/07/02 10:58:17;;;;;;;1.58;0.45;;;28.60;99.90;;;;;;5038745;28;20052;-85
2022/07/02 11:00:42;;;;;;;2.47;0.20;;;29.30;99.90;;;;;;5046343;28;20060;-86
2022/07/02 11:03:24;;;;;;;2.22;0.40;;;29.50;99.90;;;;;;5019102;28;20469;-85
2022/07/02 11:05:57;;;;;;;1.30;0.40;;;29.10;99.90;;;;;;5039439;28;20428;-86
2022/07/02 11:08:43;;;;;;;1.92;0.40;;;28.30;99.90;;;;;;5039287;28;20076;-86
2022/07/02 11:11:13;;;;;;;0.75;0.30;;;28.50;99.90;;;;;;5049312;28;20036;-85
2022/07/02 11:13:47;;;;;;;0.68;0.20;;;28.30;99.90;;;;;;5032014;28;20108;-85
2022/07/02 11:16:28;;;;;;;1.40;0.30;;;29.00;99.90;;;;;;5048885;28;20397;-86
2022/07/02 11:18:56;;;;;;;2.50;0.20;;;29.30;99.90;;;;;;5035593;28;20041;-85
2022/07/02 11:21:23;;;;;;;1.17;0.30;;;28.80;99.90;;;;;;5035332;28;20115;-86
2022/07/02 11:23:50;;;;;;;1.92;0.40;;;28.30;99.90;;;;;;5046261;28;20047;-85
2022/07/02 11:26:17;;;;;;;0.90;0.25;;;27.60;99.90;;;;;;5038244;28;20109;-85
2022/07/02 11:28:43;;;;;;;1.00;0.30;;;27.60;99.90;;;;;;5038994;28;20040;-85
2022/07/02 11:31:10;;;;;;;1.00;0.30;;;28.10;99.90;;;;;;5056463;28;20036;-86
2022/07/02 11:33:41;;;;;;;1.35;0.32;;;28.50;99.90;;;;;;5031280;28;20142;-86
2022/07/02 11:36:08;;;;;;;1.42;0.40;;;29.70;99.90;;;;;;5042077;28;20036;-86
2022/07/02 11:38:38;;;;;;;0.57;0.38;;;31.10;99.90;;;;;;5038432;28;20052;-86
2022/07/02 11:41:20;;;;;;;1.75;0.40;;;32.30;99.90;;;;;;5030139;28;20045;-86
2022/07/02 11:43:51;;;;;;;2.15;0.30;;;32.50;99.90;;;;;;5050865;28;20028;-86
2022/07/02 11:46:20;;;;;;;1.45;0.40;;;30.50;99.90;;;;;;5038502;28;20044;-86
2022/07/02 11:48:46;;;;;;;1.25;0.30;;;28.90;99.90;;;;;;5054906;28;20048;-86
2022/07/02 11:51:12;;;;;;;1.40;0.32;;;27.60;99.90;;;;;;5053909;28;20044;-86
2022/07/02 11:53:38;;;;;;;2.25;0.50;;;27.10;99.90;;;;;;5030403;28;20389;-86
2022/07/02 11:56:13;;;;;;;2.47;0.40;;;27.10;99.90;;;;;;5046804;28;20046;-89
2022/07/02 11:58:46;;;;;;;2.43;0.47;;;26.70;99.90;;;;;;5030937;28;20044;-88
2022/07/02 12:01:21;;;;;;;2.08;0.43;;;26.30;99.90;;;;;;5046656;28;20040;-86
2022/07/02 12:03:48;;;;;;;0.60;0.30;;;25.70;99.90;;;;;;5046215;28;20041;-86
2022/07/02 12:06:14;;;;;;;1.73;0.43;;;26.20;99.90;;;;;;5044486;28;20499;-86
2022/07/02 12:08:41;;;;;;;1.08;0.50;;;27.40;99.90;;;;;;5057964;28;20080;-88
2022/07/02 12:11:18;;;;;;;1.65;0.40;;;28.10;99.90;;;;;;5043230;28;20500;-93
2022/07/02 12:13:44;;;;;;;2.25;0.63;;;28.00;99.90;;;;;;5029256;28;20044;-84
2022/07/02 12:16:16;;;;;;;3.17;0.82;;;27.60;99.90;;;;;;5042006;28;20090;-86
2022/07/02 12:18:42;;;;;;;0.93;0.30;;;27.90;99.90;;;;;;5057800;28;20051;-86
2022/07/02 12:21:12;;;;;;;4.50;0.68;;;28.80;99.90;;;;;;5039698;28;20068;-90
2022/07/02 12:23:47;;;;;;;2.85;0.65;;;28.80;99.90;;;;;;5034836;28;20047;-86
2022/07/02 12:26:28;;;;;;;5.75;1.00;;;27.90;99.90;;;;;;5052645;28;20477;-85
2022/07/02 12:31:53;;;;;;;2.15;0.40;;;26.90;99.90;;;;;;5062484;28;20044;-85
2022/07/02 12:34:22;;;;;;;2.95;0.47;;;27.70;99.90;;;;;;5038560;28;20037;-86
2022/07/02 12:36:56;;;;;;;1.20;0.40;;;28.30;99.90;;;;;;5038994;28;20037;-86
2022/07/02 12:39:40;;;;;;;3.13;0.60;;;28.30;99.90;;;;;;5044899;28;20367;-85
2022/07/02 12:42:20;;;;;;;1.88;0.77;;;28.00;99.90;;;;;;5052264;28;20037;-85
2022/07/02 12:45:04;;;;;;;1.98;0.57;;;27.10;99.90;;;;;;5054895;28;20036;-86
2022/07/02 12:47:31;;;;;;;0.52;0.40;;;27.00;99.90;;;;;;5041916;28;20044;-85
2022/07/02 12:50:03;;;;;;;1.83;0.55;;;27.50;99.90;;;;;;5037282;28;20054;-86
2022/07/02 12:52:30;;;;;;;2.90;0.60;;;28.80;99.90;;;;;;5029432;28;20425;-86